Time;durP1;ratioP1;P1;durP2;ratioP2;P2;SDS_P1;SDS_P2;PMS_P1;PMS_P2;Temp;Humidity;BMP_temperature;BMP_pressure;BME280_temperature;BME280_humidity;BME280_pressure;Samples;Min_cycle;Max_cycle;Signal;HPM_P1;HPM_P2
2023/03/02 00:02:00;;;;;;;24.87;20.90;;;5.50;42.90;;;;;;20775;6828;117408;-74
2023/03/02 00:04:28;;;;;;;26.83;24.03;;;5.40;42.80;;;;;;20547;6828;307631;-75
2023/03/02 00:06:54;;;;;;;24.03;20.00;;;5.30;43.10;;;;;;20629;6828;145030;-76
2023/03/02 00:09:21;;;;;;;21.40;18.37;;;4.90;43.40;;;;;;20591;6843;117650;-75
2023/03/02 00:11:46;;;;;;;20.77;17.90;;;4.90;43.40;;;;;;20770;6828;118795;-74
2023/03/02 00:14:12;;;;;;;26.02;23.23;;;4.60;43.70;;;;;;20553;6828;311290;-75
2023/03/02 00:16:39;;;;;;;23.08;20.05;;;4.70;44.10;;;;;;20768;6828;117667;-75
2023/03/02 00:19:03;;;;;;;24.58;19.52;;;4.70;44.10;;;;;;20747;6828;121119;-76
2023/03/02 00:21:30;;;;;;;21.43;17.70;;;4.50;44.10;;;;;;20766;6829;120596;-74
2023/03/02 00:23:56;;;;;;;26.37;23.70;;;4.30;44.30;;;;;;20552;6829;294520;-75
2023/03/02 00:26:22;;;;;;;26.52;23.70;;;4.50;44.80;;;;;;20560;6829;278955;-75
2023/03/02 00:28:49;;;;;;;27.23;24.43;;;4.80;44.50;;;;;;20563;6829;282216;-75
2023/03/02 00:31:14;;;;;;;22.90;20.50;;;5.10;44.00;;;;;;20761;6829;117996;-75
2023/03/02 00:33:41;;;;;;;26.47;23.70;;;5.00;43.70;;;;;;20558;6829;282346;-75
2023/03/02 00:36:16;;;;;;;23.13;20.63;;;5.00;43.90;;;;;;20769;6829;117603;-75
2023/03/02 00:38:43;;;;;;;26.10;23.30;;;4.90;43.90;;;;;;20547;6829;308549;-75
2023/03/02 00:41:10;;;;;;;26.50;23.63;;;4.90;44.10;;;;;;20543;6829;282278;-75
2023/03/02 00:43:35;;;;;;;26.67;23.92;;;5.20;43.90;;;;;;20556;6829;283315;-75
2023/03/02 00:46:01;;;;;;;25.83;23.17;;;5.40;43.50;;;;;;20561;6829;340677;-74
2023/03/02 00:48:27;;;;;;;26.03;20.73;;;5.50;43.10;;;;;;20750;6829;117943;-74
2023/03/02 00:50:52;;;;;;;26.40;23.60;;;5.30;43.20;;;;;;20566;6829;310702;-75
2023/03/02 00:53:18;;;;;;;26.37;23.62;;;5.40;43.40;;;;;;20527;6829;307458;-75
2023/03/02 00:55:44;;;;;;;22.13;19.50;;;5.30;43.40;;;;;;20774;6827;117352;-75
2023/03/02 00:58:10;;;;;;;26.33;23.53;;;5.10;43.70;;;;;;20525;6828;314536;-75
2023/03/02 01:00:38;;;;;;;24.00;19.70;;;5.10;43.70;;;;;;20771;6828;118634;-75
2023/03/02 01:03:03;;;;;;;24.63;19.80;;;5.00;43.80;;;;;;20731;6828;118174;-76
2023/03/02 01:05:30;;;;;;;26.23;23.42;;;4.60;44.00;;;;;;20560;6828;278045;-75
2023/03/02 01:07:56;;;;;;;23.00;19.53;;;4.60;44.30;;;;;;20773;6828;120703;-75
2023/03/02 01:10:21;;;;;;;22.93;19.00;;;4.60;44.30;;;;;;20695;6828;121851;-74
2023/03/02 01:12:47;;;;;;;26.40;23.80;;;4.40;44.50;;;;;;20560;6828;307384;-74
2023/03/02 01:15:13;;;;;;;25.75;20.60;;;4.50;45.00;;;;;;20744;6828;117862;-75
2023/03/02 01:17:40;;;;;;;28.65;24.42;;;4.40;44.60;;;;;;20532;6828;345073;-74
2023/03/02 01:20:07;;;;;;;26.97;24.13;;;4.80;45.20;;;;;;20557;6828;309932;-77
2023/03/02 01:22:32;;;;;;;27.80;24.90;;;4.80;44.60;;;;;;20542;6828;312239;-76
2023/03/02 01:24:58;;;;;;;26.63;23.93;;;5.00;44.10;;;;;;20537;6828;292266;-75
2023/03/02 01:27:23;;;;;;;23.57;20.13;;;5.20;43.90;;;;;;20765;6828;118352;-75
2023/03/02 01:29:50;;;;;;;23.23;19.20;;;4.60;44.20;;;;;;20769;6828;121190;-74
2023/03/02 01:32:16;;;;;;;23.20;19.07;;;4.60;44.20;;;;;;20765;6829;117765;-75
2023/03/02 01:34:42;;;;;;;25.43;19.63;;;4.30;44.70;;;;;;20776;6829;117906;-75
2023/03/02 01:37:07;;;;;;;26.50;23.83;;;4.00;45.10;;;;;;20523;6829;283990;-75
2023/03/02 01:39:33;;;;;;;27.27;24.47;;;4.50;45.40;;;;;;20553;6829;337770;-75
2023/03/02 01:41:59;;;;;;;25.67;20.77;;;4.50;45.40;;;;;;20764;6829;117778;-75
2023/03/02 01:44:38;;;;;;;25.33;19.10;;;4.50;45.20;;;;;;20767;6829;117897;-75
2023/03/02 01:47:05;;;;;;;24.27;18.67;;;4.30;45.30;;;;;;20740;6829;118875;-75
2023/03/02 01:49:30;;;;;;;26.70;24.00;;;4.10;45.60;;;;;;20521;6829;279276;-74
2023/03/02 01:51:56;;;;;;;25.12;19.98;;;4.20;45.90;;;;;;20734;6829;117294;-75
2023/03/02 01:54:21;;;;;;;27.43;24.47;;;4.30;45.70;;;;;;20558;6829;334997;-74
2023/03/02 01:56:50;;;;;;;27.43;24.60;;;4.40;45.70;;;;;;20547;6829;278633;-74
2023/03/02 01:59:17;;;;;;;26.27;19.97;;;4.70;45.40;;;;;;20738;6829;121814;-74
2023/03/02 02:01:42;;;;;;;23.73;19.00;;;4.70;45.20;;;;;;20767;6829;117332;-74
2023/03/02 02:04:08;;;;;;;22.77;18.20;;;4.50;45.30;;;;;;20760;6829;117737;-75
2023/03/02 02:06:33;;;;;;;25.77;22.93;;;4.30;45.60;;;;;;20558;6827;278624;-74
2023/03/02 02:09:00;;;;;;;27.23;24.30;;;4.70;45.90;;;;;;20529;6828;339229;-75
2023/03/02 02:11:25;;;;;;;27.02;24.23;;;4.70;45.60;;;;;;20550;6828;311264;-75
2023/03/02 02:13:54;;;;;;;27.00;24.10;;;5.00;45.00;;;;;;20551;6828;298741;-75
2023/03/02 02:16:21;;;;;;;22.90;19.43;;;5.20;44.70;;;;;;20748;6828;118805;-75
2023/03/02 02:18:48;;;;;;;26.53;23.60;;;5.00;44.50;;;;;;20549;6828;307363;-75
2023/03/02 02:21:14;;;;;;;24.03;18.67;;;5.00;44.80;;;;;;20752;6828;118742;-76
2023/03/02 02:24:04;;;;;;;20.90;18.27;;;4.90;44.80;;;;;;20772;6828;117380;-75
2023/03/02 02:26:29;;;;;;;25.23;22.77;;;4.60;45.60;;;;;;19518;7172;290013;-77
2023/03/02 02:29:06;;;;;;;26.83;24.12;;;4.70;45.40;;;;;;20456;6828;279792;-75
2023/03/02 02:31:34;;;;;;;27.05;23.77;;;4.90;45.00;;;;;;20487;6843;337867;-75
2023/03/02 02:34:02;;;;;;;25.10;22.67;;;5.10;44.60;;;;;;20483;6843;336808;-75
2023/03/02 02:36:33;;;;;;;25.87;23.27;;;5.30;44.30;;;;;;20460;6843;338133;-75
2023/03/02 02:38:58;;;;;;;22.53;19.27;;;5.40;44.00;;;;;;20701;6843;118006;-75
2023/03/02 02:41:24;;;;;;;22.37;18.20;;;5.10;44.10;;;;;;20720;6840;121867;-75
2023/03/02 02:43:51;;;;;;;24.93;18.70;;;4.70;44.50;;;;;;20709;6843;117803;-75
2023/03/02 02:46:16;;;;;;;26.27;23.52;;;4.40;45.00;;;;;;20499;6843;338236;-76
2023/03/02 02:48:42;;;;;;;25.77;19.47;;;4.40;45.50;;;;;;20710;6840;117944;-75
2023/03/02 02:51:09;;;;;;;22.83;18.63;;;4.40;45.50;;;;;;20677;6843;127296;-76
2023/03/02 02:53:58;;;;;;;26.73;23.70;;;4.20;45.60;;;;;;20542;6829;326016;-75
2023/03/02 02:56:33;;;;;;;24.60;20.03;;;4.30;46.00;;;;;;20745;6829;117862;-74
2023/03/02 02:59:06;;;;;;;23.23;18.60;;;4.30;46.20;;;;;;20745;6829;117628;-75
2023/03/02 03:01:31;;;;;;;25.90;23.10;;;4.10;45.90;;;;;;20561;6829;338444;-74
2023/03/02 03:03:58;;;;;;;23.43;20.10;;;4.20;46.30;;;;;;20768;6829;117268;-75
2023/03/02 03:06:36;;;;;;;26.87;22.98;;;4.20;46.10;;;;;;20548;6829;341505;-74
2023/03/02 03:08:54;;;;;;;27.55;24.63;;;4.40;46.20;;;;;;20514;6829;283854;-76
2023/03/02 03:11:24;;;;;;;26.03;23.43;;;4.90;45.30;;;;;;20546;6829;312142;-75
2023/03/02 03:14:12;;;;;;;27.77;20.77;;;4.90;45.30;;;;;;20766;6829;117418;-75
2023/03/02 03:16:39;;;;;;;32.55;29.12;;;4.80;45.10;;;;;;20541;6827;307677;-76
2023/03/02 03:19:25;;;;;;;24.97;20.10;;;4.80;45.10;;;;;;20741;6828;118032;-76
2023/03/02 03:21:51;;;;;;;23.50;19.30;;;4.70;45.10;;;;;;20761;6828;123671;-76
2023/03/02 03:24:16;;;;;;;25.50;19.67;;;4.30;45.30;;;;;;20752;6828;118061;-77
2023/03/02 03:26:42;;;;;;;27.70;24.73;;;4.00;45.70;;;;;;20554;6828;307365;-76
2023/03/02 03:29:10;;;;;;;26.57;20.67;;;4.10;46.00;;;;;;20743;6828;122656;-77
2023/03/02 03:31:36;;;;;;;22.40;18.47;;;4.10;46.00;;;;;;20756;6828;117488;-76
2023/03/02 03:34:03;;;;;;;26.40;23.70;;;4.10;46.60;;;;;;20549;6828;307444;-76
2023/03/02 03:36:28;;;;;;;27.92;24.90;;;4.10;46.60;;;;;;20545;6828;338176;-76
2023/03/02 03:38:54;;;;;;;28.40;25.33;;;4.40;46.20;;;;;;20530;6828;308094;-76
2023/03/02 03:41:19;;;;;;;27.20;24.40;;;4.70;45.70;;;;;;20546;6828;284081;-76
2023/03/02 03:43:45;;;;;;;26.65;23.85;;;5.00;45.30;;;;;;20552;6828;277698;-76
2023/03/02 03:46:11;;;;;;;26.03;21.07;;;5.20;44.80;;;;;;20756;6828;117866;-76
2023/03/02 03:48:36;;;;;;;28.97;24.97;;;5.00;44.80;;;;;;20557;6828;282122;-76
2023/03/02 03:51:02;;;;;;;25.07;21.53;;;5.00;45.00;;;;;;20752;6828;118492;-76
2023/03/02 03:53:27;;;;;;;25.90;23.20;;;4.90;45.10;;;;;;20565;6828;307731;-76
2023/03/02 03:55:56;;;;;;;23.90;20.47;;;4.90;45.20;;;;;;20780;6829;116975;-76
2023/03/02 03:58:20;;;;;;;27.67;24.77;;;4.80;45.10;;;;;;20598;6829;277610;-75
2023/03/02 04:00:46;;;;;;;28.20;25.20;;;4.90;45.10;;;;;;20601;6829;276637;-76
2023/03/02 04:03:11;;;;;;;24.40;20.90;;;5.10;44.70;;;;;;20741;6829;118424;-74
2023/03/02 04:05:37;;;;;;;27.05;24.25;;;5.00;44.60;;;;;;20572;6829;280854;-74
2023/03/02 04:08:03;;;;;;;28.37;25.33;;;5.10;44.60;;;;;;20551;6829;338337;-75
2023/03/02 04:10:29;;;;;;;28.07;25.13;;;5.10;44.60;;;;;;20563;6829;279025;-76
2023/03/02 04:12:54;;;;;;;28.42;25.42;;;5.30;44.20;;;;;;20538;6829;277752;-77
2023/03/02 04:15:20;;;;;;;29.25;26.10;;;5.40;43.90;;;;;;20551;6829;278491;-75
2023/03/02 04:17:45;;;;;;;26.07;21.23;;;5.50;43.80;;;;;;20768;6829;121873;-76
2023/03/02 04:20:15;;;;;;;27.98;25.08;;;5.20;43.90;;;;;;20559;6829;306906;-76
2023/03/02 04:22:37;;;;;;;28.67;21.87;;;4.90;44.40;;;;;;20753;6829;117764;-76
2023/03/02 04:25:04;;;;;;;24.13;19.33;;;4.90;44.40;;;;;;20739;6829;144717;-76
2023/03/02 04:27:30;;;;;;;28.10;25.13;;;4.60;44.90;;;;;;20553;6829;278231;-80
2023/03/02 04:29:56;;;;;;;27.83;24.93;;;4.60;45.30;;;;;;20598;6827;307103;-83
2023/03/02 04:32:21;;;;;;;26.37;20.63;;;4.80;45.10;;;;;;20817;6828;117315;-83
2023/03/02 04:34:47;;;;;;;28.08;25.08;;;4.70;45.00;;;;;;20593;6828;280028;-82
2023/03/02 04:37:14;;;;;;;28.20;25.20;;;4.70;45.30;;;;;;20578;6828;310396;-83
2023/03/02 04:39:41;;;;;;;28.05;25.10;;;4.90;45.00;;;;;;20581;6828;278449;-80
2023/03/02 04:42:06;;;;;;;28.17;24.63;;;5.10;44.80;;;;;;20590;6828;309580;-80
2023/03/02 04:44:32;;;;;;;24.20;20.62;;;5.30;44.50;;;;;;20808;6828;117308;-79
2023/03/02 04:46:57;;;;;;;24.50;19.90;;;5.10;44.40;;;;;;20798;6828;117386;-79
2023/03/02 04:49:24;;;;;;;22.60;19.02;;;4.70;44.80;;;;;;20832;6828;117776;-79
2023/03/02 04:51:50;;;;;;;22.43;18.37;;;4.40;45.30;;;;;;20825;6828;117388;-79
2023/03/02 04:54:18;;;;;;;31.10;25.35;;;4.20;45.70;;;;;;20611;6828;306485;-79
2023/03/02 04:56:47;;;;;;;29.20;25.93;;;4.30;46.10;;;;;;20611;6828;278265;-79
2023/03/02 04:59:09;;;;;;;25.33;21.00;;;4.60;45.80;;;;;;20794;6828;122774;-79
2023/03/02 05:01:36;;;;;;;24.92;19.60;;;4.60;45.60;;;;;;20830;6828;116879;-79
2023/03/02 05:04:02;;;;;;;27.87;24.87;;;4.30;45.70;;;;;;20616;6828;336772;-80
2023/03/02 05:06:29;;;;;;;32.10;28.80;;;4.40;46.00;;;;;;20612;6829;277850;-79
2023/03/02 05:08:58;;;;;;;32.00;28.63;;;4.70;45.90;;;;;;20579;6829;307486;-77
2023/03/02 05:11:24;;;;;;;27.63;21.67;;;4.90;45.30;;;;;;20773;6829;117563;-77
2023/03/02 05:13:51;;;;;;;26.23;19.30;;;4.80;45.10;;;;;;20819;6829;117840;-80
2023/03/02 05:16:17;;;;;;;25.27;19.00;;;4.60;45.60;;;;;;20793;6829;116347;-79
2023/03/02 05:18:43;;;;;;;22.97;18.30;;;4.40;46.00;;;;;;20785;6829;117484;-81
2023/03/02 05:21:09;;;;;;;24.97;18.77;;;4.20;46.20;;;;;;20775;6829;118028;-81
2023/03/02 05:23:34;;;;;;;27.75;24.35;;;4.00;46.40;;;;;;20582;6829;335492;-81
2023/03/02 05:26:00;;;;;;;30.73;25.13;;;4.20;46.70;;;;;;20588;6829;339971;-79
2023/03/02 05:28:25;;;;;;;27.50;24.57;;;4.60;46.30;;;;;;20589;6829;288152;-80
2023/03/02 05:30:54;;;;;;;27.47;24.57;;;4.90;45.70;;;;;;20568;6829;278029;-77
2023/03/02 05:33:21;;;;;;;29.60;21.73;;;5.20;45.10;;;;;;20788;6829;117200;-84
2023/03/02 05:35:47;;;;;;;25.83;19.57;;;4.80;45.40;;;;;;20788;6829;118026;-81
2023/03/02 05:38:12;;;;;;;25.13;18.70;;;4.70;45.30;;;;;;20790;6829;117427;-81
2023/03/02 05:40:38;;;;;;;28.73;24.75;;;4.50;45.60;;;;;;20569;6827;305595;-76
2023/03/02 05:43:04;;;;;;;27.65;24.65;;;4.60;46.00;;;;;;20577;6828;277172;-79
2023/03/02 05:45:29;;;;;;;25.63;21.60;;;4.90;45.70;;;;;;20786;6828;117460;-81
2023/03/02 05:47:55;;;;;;;29.63;20.37;;;4.80;45.30;;;;;;20769;6828;121560;-80
2023/03/02 05:50:20;;;;;;;28.65;19.15;;;4.60;45.80;;;;;;20779;6828;117666;-77
2023/03/02 05:52:46;;;;;;;27.42;24.52;;;4.40;45.90;;;;;;20570;6828;307199;-78
2023/03/02 05:55:11;;;;;;;29.60;25.57;;;4.50;46.30;;;;;;20531;6828;307218;-79
2023/03/02 05:57:37;;;;;;;30.73;25.67;;;4.80;46.00;;;;;;20571;6828;310469;-80
2023/03/02 06:00:04;;;;;;;25.23;21.00;;;5.10;45.40;;;;;;20764;6828;116381;-77
2023/03/02 06:02:28;;;;;;;25.70;19.53;;;5.00;45.10;;;;;;20792;6828;67338;-78
2023/03/02 06:04:55;;;;;;;23.93;19.60;;;4.70;45.40;;;;;;20767;6828;118286;-78
2023/03/02 06:07:22;;;;;;;29.00;24.92;;;4.50;45.80;;;;;;20565;6828;311033;-82
2023/03/02 06:09:48;;;;;;;26.33;19.97;;;4.60;46.10;;;;;;20802;6828;117624;-82
2023/03/02 06:12:14;;;;;;;30.07;25.70;;;4.70;45.90;;;;;;20569;6828;307317;-78
2023/03/02 06:14:41;;;;;;;28.75;25.77;;;4.70;45.90;;;;;;20564;6828;308241;-79
2023/03/02 06:17:06;;;;;;;28.15;25.17;;;5.00;45.60;;;;;;20519;6828;312426;-80
2023/03/02 06:19:32;;;;;;;28.83;25.77;;;5.20;45.10;;;;;;20570;6829;307921;-82
2023/03/02 06:21:58;;;;;;;27.27;24.37;;;5.30;44.70;;;;;;20568;6829;336835;-81
2023/03/02 06:24:24;;;;;;;28.58;25.62;;;5.60;44.30;;;;;;20550;6829;307107;-78
2023/03/02 06:26:51;;;;;;;27.37;20.27;;;5.50;44.20;;;;;;20786;6829;117452;-77
2023/03/02 06:29:16;;;;;;;28.37;25.27;;;5.30;44.40;;;;;;20542;6829;279024;-78
2023/03/02 06:31:42;;;;;;;27.13;20.90;;;5.10;44.80;;;;;;20780;6829;118134;-76
2023/03/02 06:34:08;;;;;;;27.60;21.00;;;5.10;44.80;;;;;;20780;6829;117242;-78
2023/03/02 06:36:37;;;;;;;28.17;19.70;;;4.50;45.90;;;;;;20771;6829;117332;-78
2023/03/02 06:39:00;;;;;;;23.40;18.40;;;4.50;45.50;;;;;;20741;6829;117728;-78
2023/03/02 06:41:25;;;;;;;23.48;18.33;;;4.30;45.80;;;;;;20772;6829;117567;-78
2023/03/02 06:43:52;;;;;;;27.00;19.40;;;4.10;46.10;;;;;;20774;6829;116549;-78
2023/03/02 06:46:18;;;;;;;25.63;19.17;;;3.90;46.60;;;;;;20791;6829;116838;-78
2023/03/02 06:48:44;;;;;;;25.13;19.37;;;3.80;46.50;;;;;;20781;6829;116531;-78
2023/03/02 06:51:11;;;;;;;25.60;19.37;;;3.80;46.80;;;;;;20725;6829;117781;-82
2023/03/02 06:53:35;;;;;;;24.77;18.92;;;3.80;47.00;;;;;;20767;6827;117788;-78
2023/03/02 06:56:02;;;;;;;29.10;24.60;;;3.70;47.10;;;;;;20605;6828;306998;-80
2023/03/02 06:58:28;;;;;;;26.70;21.43;;;4.00;47.60;;;;;;20803;6828;116936;-80
2023/03/02 07:00:53;;;;;;;26.40;20.27;;;4.10;47.20;;;;;;20824;6828;116840;-79
2023/03/02 07:03:19;;;;;;;28.23;25.12;;;4.00;47.20;;;;;;20416;6899;325077;-78
2023/03/02 07:05:47;;;;;;;29.23;21.33;;;4.20;47.30;;;;;;20699;6828;116537;-79
2023/03/02 07:08:10;;;;;;;24.47;19.47;;;4.30;47.10;;;;;;20810;6828;116660;-79
2023/03/02 07:10:36;;;;;;;28.77;20.23;;;4.20;47.20;;;;;;20830;6828;117408;-78
2023/03/02 07:13:01;;;;;;;27.13;19.43;;;4.10;47.40;;;;;;20808;6828;117528;-80
2023/03/02 07:15:27;;;;;;;26.35;20.00;;;4.10;47.60;;;;;;20830;6828;118090;-78
2023/03/02 07:17:54;;;;;;;25.95;19.50;;;4.00;47.80;;;;;;20830;6828;116486;-78
2023/03/02 07:20:19;;;;;;;29.35;24.55;;;4.00;47.80;;;;;;20618;6828;335533;-78
2023/03/02 07:22:45;;;;;;;30.43;26.07;;;4.30;47.90;;;;;;20591;6828;279203;-78
2023/03/02 07:25:10;;;;;;;25.80;21.12;;;4.70;47.30;;;;;;20799;6828;119377;-78
2023/03/02 07:27:36;;;;;;;29.97;26.40;;;4.90;47.00;;;;;;20611;6828;336827;-78
2023/03/02 07:30:03;;;;;;;31.00;26.45;;;5.40;46.10;;;;;;20606;6829;336310;-78
2023/03/02 07:32:30;;;;;;;27.83;24.90;;;5.40;46.10;;;;;;20597;6829;306604;-78
2023/03/02 07:34:55;;;;;;;25.07;20.60;;;5.70;45.40;;;;;;20811;6829;116426;-80
2023/03/02 07:37:22;;;;;;;27.20;24.30;;;5.60;46.00;;;;;;20417;6829;306897;-78
2023/03/02 07:39:48;;;;;;;24.83;19.43;;;5.70;45.40;;;;;;20825;6829;117693;-80
2023/03/02 07:42:15;;;;;;;24.90;19.37;;;5.60;45.40;;;;;;20822;6829;117801;-78
2023/03/02 07:44:40;;;;;;;28.17;24.20;;;5.40;45.80;;;;;;20608;6829;336650;-78
2023/03/02 07:47:06;;;;;;;25.37;20.30;;;5.50;45.80;;;;;;20799;6829;144178;-78
2023/03/02 07:49:32;;;;;;;23.83;19.23;;;5.50;45.60;;;;;;20803;6829;117122;-78
2023/03/02 07:51:57;;;;;;;25.98;23.27;;;5.40;45.90;;;;;;20609;6829;311375;-78
2023/03/02 07:54:25;;;;;;;26.25;23.55;;;5.50;45.90;;;;;;20598;6829;335522;-78
2023/03/02 07:56:50;;;;;;;23.73;20.07;;;5.80;45.40;;;;;;20823;6829;118595;-78
2023/03/02 07:59:16;;;;;;;25.47;22.33;;;5.90;45.40;;;;;;20599;6829;289556;-79
2023/03/02 08:01:43;;;;;;;24.10;18.87;;;6.00;45.10;;;;;;20827;6829;116989;-78
2023/03/02 08:04:09;;;;;;;25.53;22.90;;;5.90;44.90;;;;;;20616;6827;277599;-78
2023/03/02 08:06:34;;;;;;;27.37;24.57;;;6.00;44.90;;;;;;20601;6828;310872;-78
2023/03/02 08:09:00;;;;;;;23.53;19.37;;;6.20;44.30;;;;;;20805;6828;122521;-79
2023/03/02 08:11:28;;;;;;;25.60;19.02;;;6.00;44.70;;;;;;20824;6828;118214;-78
2023/03/02 08:13:53;;;;;;;20.20;17.53;;;6.00;44.70;;;;;;20821;6828;117071;-78
2023/03/02 08:16:20;;;;;;;27.23;18.90;;;5.80;45.20;;;;;;20839;6828;117459;-78
2023/03/02 08:18:44;;;;;;;27.63;24.17;;;5.60;45.60;;;;;;20610;6828;307574;-78
2023/03/02 08:21:10;;;;;;;40.87;36.50;;;5.80;45.70;;;;;;20577;6828;306766;-77
2023/03/02 08:23:37;;;;;;;39.40;31.00;;;6.20;44.80;;;;;;20736;6828;117804;-78
2023/03/02 08:26:03;;;;;;;25.20;22.55;;;6.30;44.70;;;;;;20558;6828;312822;-77
2023/03/02 08:28:30;;;;;;;25.90;23.10;;;6.40;44.20;;;;;;20559;6828;282735;-77
2023/03/02 08:30:55;;;;;;;26.13;23.33;;;6.70;43.70;;;;;;20538;6828;307378;-77
2023/03/02 08:33:21;;;;;;;25.43;22.83;;;6.80;43.30;;;;;;20553;6828;312488;-77
2023/03/02 08:35:56;;;;;;;25.10;18.45;;;7.00;43.10;;;;;;20768;6828;117765;-77
2023/03/02 08:38:22;;;;;;;24.20;19.77;;;6.90;43.30;;;;;;20764;6828;117358;-77
2023/03/02 08:40:47;;;;;;;22.80;18.20;;;6.60;43.80;;;;;;20761;6828;117348;-77
2023/03/02 08:43:13;;;;;;;25.03;22.07;;;6.40;44.40;;;;;;20568;6829;279213;-80
2023/03/02 08:45:38;;;;;;;25.52;19.52;;;6.50;44.30;;;;;;20817;6829;121183;-77
2023/03/02 08:48:04;;;;;;;24.67;22.17;;;6.50;44.20;;;;;;20566;6829;308608;-77
2023/03/02 08:50:32;;;;;;;25.27;22.77;;;6.90;43.90;;;;;;20571;6829;307240;-81
2023/03/02 08:52:57;;;;;;;27.55;23.25;;;6.90;43.80;;;;;;20531;6829;311644;-77
2023/03/02 08:55:23;;;;;;;26.50;19.73;;;7.20;43.30;;;;;;20742;6829;117872;-77
2023/03/02 08:57:49;;;;;;;25.27;22.58;;;7.20;43.50;;;;;;20581;6829;311778;-77
2023/03/02 09:00:17;;;;;;;23.03;19.97;;;7.20;43.30;;;;;;20783;6829;121293;-77
2023/03/02 09:02:42;;;;;;;25.67;22.67;;;7.20;43.50;;;;;;20559;6829;312122;-78
2023/03/02 09:05:07;;;;;;;25.60;22.90;;;7.30;43.30;;;;;;20566;6829;300669;-79
2023/03/02 09:07:33;;;;;;;23.37;20.13;;;7.50;42.90;;;;;;20809;6829;117739;-78
2023/03/02 09:10:00;;;;;;;20.40;17.93;;;7.40;43.00;;;;;;20811;6829;117420;-77
2023/03/02 09:12:29;;;;;;;21.67;18.17;;;7.20;43.40;;;;;;20817;6829;118520;-78
2023/03/02 09:14:55;;;;;;;25.90;18.00;;;7.00;43.80;;;;;;20791;6827;117388;-78
2023/03/02 09:17:20;;;;;;;25.02;17.85;;;6.80;44.10;;;;;;20684;6828;116536;-78
2023/03/02 09:19:46;;;;;;;26.65;22.33;;;6.70;44.40;;;;;;20602;6828;337071;-78
2023/03/02 09:22:12;;;;;;;26.07;23.03;;;6.90;44.10;;;;;;20583;6828;307622;-78
2023/03/02 09:24:37;;;;;;;25.67;22.97;;;7.30;43.40;;;;;;20602;6828;280741;-79
2023/03/02 09:27:04;;;;;;;25.57;22.97;;;7.60;43.10;;;;;;20528;6828;281270;-79
2023/03/02 09:29:31;;;;;;;26.70;19.60;;;7.90;42.60;;;;;;20807;6828;118369;-78
2023/03/02 09:31:56;;;;;;;25.20;19.13;;;7.90;42.80;;;;;;20791;6828;117441;-78
2023/03/02 09:34:22;;;;;;;23.05;18.62;;;7.70;43.30;;;;;;20791;6828;117059;-78
2023/03/02 09:36:48;;;;;;;25.45;18.98;;;7.50;44.20;;;;;;20788;6828;121287;-79
2023/03/02 09:39:15;;;;;;;25.10;22.17;;;7.40;43.80;;;;;;20583;6828;324376;-79
2023/03/02 09:41:47;;;;;;;24.75;22.25;;;7.60;43.30;;;;;;20592;6828;336346;-78
2023/03/02 09:44:29;;;;;;;25.93;23.13;;;7.90;43.20;;;;;;20561;6828;308115;-83
2023/03/02 09:47:05;;;;;;;25.20;22.60;;;8.30;42.00;;;;;;20589;6828;278437;-81
2023/03/02 09:49:34;;;;;;;33.90;30.50;;;8.50;41.50;;;;;;20566;6828;307223;-80
2023/03/02 09:52:03;;;;;;;27.87;25.02;;;8.80;41.30;;;;;;20577;6828;325589;-81
2023/03/02 09:54:28;;;;;;;23.83;19.37;;;8.90;40.60;;;;;;20500;6829;117921;-79
2023/03/02 09:56:56;;;;;;;24.23;19.67;;;8.60;41.90;;;;;;20814;6829;116688;-77
2023/03/02 09:59:38;;;;;;;23.03;20.73;;;8.70;41.80;;;;;;20421;6829;310562;-79
2023/03/02 10:02:16;;;;;;;22.97;19.40;;;8.70;41.80;;;;;;20798;6829;116564;-78
2023/03/02 10:04:42;;;;;;;21.87;18.90;;;8.70;42.00;;;;;;20802;6829;116497;-79
2023/03/02 10:07:14;;;;;;;25.05;22.40;;;8.50;42.20;;;;;;20575;6829;306146;-80
2023/03/02 10:09:40;;;;;;;21.67;18.63;;;8.60;42.00;;;;;;20800;6829;119297;-84
2023/03/02 10:12:22;;;;;;;25.53;22.87;;;8.80;41.80;;;;;;20604;6829;284052;-82
2023/03/02 10:14:58;;;;;;;22.97;19.33;;;8.80;41.80;;;;;;20750;6829;117890;-81
2023/03/02 10:17:43;;;;;;;25.17;22.67;;;8.90;41.90;;;;;;20591;6829;335608;-80
2023/03/02 10:20:13;;;;;;;23.37;20.70;;;9.20;41.80;;;;;;20770;6829;121619;-80
2023/03/02 10:22:39;;;;;;;24.77;22.27;;;9.10;41.60;;;;;;20553;6829;311767;-81
2023/03/02 10:25:07;;;;;;;25.30;20.45;;;9.30;40.80;;;;;;20707;6829;118274;-80
2023/03/02 10:27:35;;;;;;;25.73;22.77;;;9.50;41.20;;;;;;20516;6826;282169;-81
2023/03/02 10:30:06;;;;;;;25.40;22.90;;;9.50;41.10;;;;;;20582;6828;307804;-79
2023/03/02 10:32:32;;;;;;;22.47;19.47;;;9.80;40.50;;;;;;20760;6828;117537;-79
2023/03/02 10:35:07;;;;;;;25.93;23.23;;;9.80;40.70;;;;;;20535;6828;310641;-78
2023/03/02 10:37:32;;;;;;;22.90;20.50;;;9.80;40.20;;;;;;20612;6828;117461;-82
2023/03/02 10:39:58;;;;;;;25.07;19.33;;;9.70;40.50;;;;;;20808;6828;117284;-82
2023/03/02 10:42:35;;;;;;;26.10;23.30;;;9.50;41.00;;;;;;20602;6828;341251;-82
2023/03/02 10:45:00;;;;;;;25.83;23.20;;;9.60;40.90;;;;;;20564;6828;280401;-81
2023/03/02 10:47:26;;;;;;;25.83;23.13;;;9.80;40.60;;;;;;19949;6828;310243;-81
2023/03/02 10:49:52;;;;;;;22.27;19.98;;;10.10;39.00;;;;;;20816;6828;116353;-81
2023/03/02 10:52:17;;;;;;;24.95;22.42;;;10.00;39.20;;;;;;20598;6828;316963;-79
2023/03/02 10:54:44;;;;;;;23.13;20.20;;;10.00;39.00;;;;;;20781;6828;120322;-78
2023/03/02 10:57:27;;;;;;;25.80;23.27;;;9.90;40.40;;;;;;20565;6828;307642;-78
2023/03/02 10:59:52;;;;;;;21.70;19.20;;;9.90;40.00;;;;;;20767;6828;116928;-76
2023/03/02 11:02:23;;;;;;;21.93;19.20;;;9.80;40.30;;;;;;20768;6828;118589;-76
2023/03/02 11:04:56;;;;;;;26.03;23.33;;;9.80;40.80;;;;;;20553;6829;307644;-75
2023/03/02 11:07:22;;;;;;;25.97;20.37;;;9.80;40.80;;;;;;20763;6829;117436;-80
2023/03/02 11:09:57;;;;;;;21.63;18.83;;;9.80;41.00;;;;;;20753;6829;118276;-79
2023/03/02 11:12:24;;;;;;;26.25;23.48;;;9.70;41.30;;;;;;20545;6829;308314;-78
2023/03/02 11:14:49;;;;;;;22.67;20.30;;;9.90;40.90;;;;;;20777;6829;117373;-79
2023/03/02 11:17:31;;;;;;;24.80;19.07;;;10.00;40.00;;;;;;20718;6829;118406;-79
2023/03/02 11:19:57;;;;;;;26.65;22.70;;;9.90;41.20;;;;;;20561;6829;307774;-81
2023/03/02 11:22:33;;;;;;;26.40;23.60;;;10.40;39.00;;;;;;20560;6829;337405;-78
2023/03/02 11:24:58;;;;;;;25.35;22.75;;;10.30;38.90;;;;;;20529;6829;279102;-81
2023/03/02 11:27:24;;;;;;;25.87;23.23;;;10.70;38.30;;;;;;20552;6829;307587;-78
2023/03/02 11:29:54;;;;;;;26.92;24.30;;;10.80;37.80;;;;;;20546;6829;307869;-79
2023/03/02 11:32:27;;;;;;;25.97;23.27;;;11.00;37.50;;;;;;20529;6829;308462;-77
2023/03/02 11:35:03;;;;;;;25.70;23.10;;;11.00;37.40;;;;;;20327;6829;318959;-76
2023/03/02 11:37:39;;;;;;;27.10;24.23;;;11.10;37.50;;;;;;20538;6829;312499;-78
2023/03/02 11:40:07;;;;;;;27.17;24.15;;;11.30;38.20;;;;;;20551;6828;337932;-78
2023/03/02 11:42:33;;;;;;;21.50;19.40;;;11.40;37.60;;;;;;20779;6828;118146;-77
2023/03/02 11:44:59;;;;;;;25.48;22.85;;;11.30;37.80;;;;;;20532;6828;308081;-75
2023/03/02 11:47:24;;;;;;;25.60;20.70;;;11.40;37.80;;;;;;20757;6828;117743;-78
2023/03/02 11:49:53;;;;;;;25.77;23.27;;;11.40;38.80;;;;;;20556;6828;282334;-75
2023/03/02 11:52:19;;;;;;;24.33;20.30;;;11.30;38.00;;;;;;20758;6828;118271;-77
2023/03/02 11:54:45;;;;;;;23.93;20.60;;;11.20;39.00;;;;;;20761;6828;117980;-78
2023/03/02 11:57:30;;;;;;;21.23;19.00;;;11.10;38.70;;;;;;20722;6828;118098;-77
2023/03/02 11:59:57;;;;;;;21.30;18.37;;;10.90;39.50;;;;;;20748;6828;117559;-76
2023/03/02 12:02:22;;;;;;;24.23;21.73;;;10.90;39.50;;;;;;20547;6828;307223;-76
2023/03/02 12:04:48;;;;;;;15.17;13.73;;;11.10;38.90;;;;;;20766;6828;117797;-77
2023/03/02 12:07:21;;;;;;;22.47;20.27;;;11.20;38.90;;;;;;20533;6828;402911;-77
2023/03/02 12:09:57;;;;;;;20.03;17.57;;;11.40;37.80;;;;;;20700;6828;122002;-77
2023/03/02 12:12:46;;;;;;;17.67;15.73;;;11.50;37.90;;;;;;20526;6828;285211;-77
2023/03/02 12:15:35;;;;;;;22.60;20.03;;;11.60;36.60;;;;;;20725;6828;118332;-78
2023/03/02 12:18:01;;;;;;;20.08;18.15;;;11.70;36.40;;;;;;20541;6829;338524;-76
2023/03/02 12:20:27;;;;;;;21.40;19.10;;;11.70;36.40;;;;;;20768;6829;117525;-76
2023/03/02 12:22:52;;;;;;;24.10;21.67;;;11.70;37.00;;;;;;20555;6829;308186;-76
2023/03/02 12:25:18;;;;;;;17.33;15.60;;;11.80;37.10;;;;;;20751;6829;118079;-76
2023/03/02 12:27:45;;;;;;;17.95;16.33;;;11.70;37.40;;;;;;20559;6829;308069;-79